Atlantic Clover — 3FVD6 — position and weather

sailwx.info

Track history (hours):
 
Tides and Currents Weather Stations Pressure Air Temp Water Temp Dewpoint Dewpoint Depression Visibility Wind Speed Wind Dir Waves Ship Positions

Atlantic Clover

Last reported at 2015-May-27 17:16 UTC. Time now 2015-May-28 08:06 UTC.
Position N 33°11' W 008°40'.

Length 180 m; draft 9.8 m.

Type: Cargo ship. MMSI: 371263000.

Date/timePositionNaut miles runAvg speedWind from/ knotsBaromVisibWave heightAir tempDewpointWater temp
2015-May-27 17:16N 33°11' W 008°40'0 0.0
2015-May-27 15:31N 33°11' W 008°40'0 0.0
2015-May-27 14:31N 33°11' W 008°40'0 0.0
2015-May-27 12:25N 33°11' W 008°40'0 0.0
2015-May-27 11:22N 33°11' W 008°40'0 0.0
2015-May-26 17:31N 33°11' W 008°40'0 0.0
2015-May-26 15:28N 33°11' W 008°40'0 0.0
2015-May-26 14:31N 33°11' W 008°40'  
2015-May-23 17:34N 35°59' W 005°30'1110.7
2015-May-23 16:33N 36°07' W 005°21'0 0.2
2015-May-23 15:33N 36°07' W 005°22'0 0.0
2015-May-23 14:33N 36°07' W 005°22'0 0.0
2015-May-23 13:33N 36°07' W 005°22'0 0.0
2015-May-23 12:33N 36°07' W 005°21'0 0.2
2015-May-23 11:33N 36°07' W 005°22'0 0.1
2015-May-23 10:33N 36°07' W 005°21'0 0.1
2015-May-23 09:30N 36°07' W 005°21'0 0.0
2015-May-23 08:33N 36°07' W 005°21'0 0.0
2015-May-23 07:30N 36°07' W 005°21'0 0.0
2015-May-23 06:33N 36°07' W 005°21'1 1.2
2015-May-23 05:33N 36°06' W 005°22'4 4.3
2015-May-23 04:33N 36°05' W 005°16'11611.6
2015-May-22 18:33N 36°21' W 002°54'1312.6
2015-May-22 17:33N 36°23' W 002°39'1313.1
2015-May-22 16:33N 36°24' W 002°22'1313.1
2015-May-22 15:33N 36°26' W 002°06'1412.8
2015-May-22 14:30N 36°28' W 001°50'1212.5
2015-May-22 13:30N 36°30' W 001°34'3812.3
2015-May-22 10:22N 36°35' W 000°47'43212.0
2015-May-20 22:17N 37°37' E 008°09'811.0
2015-May-20 21:33N 37°38' E 008°19'10211.0
2015-May-20 12:17N 37°37' E 010°27'1011.6
2015-May-20 11:24N 37°34' E 010°40'1011.7
2015-May-20 10:30N 37°32' E 010°52'2412.0
2015-May-20 08:30N 37°23' E 011°21'1412.7
2015-May-20 07:22N 37°16' E 011°37'2512.6
2015-May-20 05:25N 37°05' E 012°04'1112.5
2015-May-20 04:33N 37°01' E 012°17'1212.4
2015-May-20 03:33N 36°57' E 012°31'1212.2
2015-May-20 02:33N 36°53' E 012°46'1212.3
2015-May-20 01:33N 36°49' E 013°00'1212.2
2015-May-20 00:34N 36°45' E 013°15'1212.2
2015-May-19 23:33N 36°42' E 013°29'1212.0
2015-May-19 22:33N 36°38' E 013°43'1211.7
2015-May-19 21:33N 36°34' E 013°57'1211.9
2015-May-19 20:33N 36°30' E 014°11'1212.1
2015-May-19 19:33N 36°26' E 014°25'1212.1
2015-May-19 18:33N 36°22' E 014°40'1211.7
2015-May-19 17:33N 36°18' E 014°53'1211.7
2015-May-19 16:33N 36°15' E 015°07'  
Track history (hours):
 
Tides and Currents Weather Stations Pressure Air Temp Water Temp Dewpoint Dewpoint Depression Visibility Wind Speed Wind Dir Waves Ship Positions

Atlantic Clover

Last reported at 2015-May-27 17:16 UTC. Time now 2015-May-28 08:06 UTC.
Position N 33°11' W 008°40'.

Length 180 m; draft 9.8 m.

Type: Cargo ship. MMSI: 371263000.

Date/timePositionNaut miles runAvg speedWind from/ knotsBaromVisibWave heightAir tempDewpointWater temp
2015-May-27 17:16N 33°11' W 008°40'0 0.0
2015-May-27 15:31N 33°11' W 008°40'0 0.0
2015-May-27 14:31N 33°11' W 008°40'0 0.0
2015-May-27 12:25N 33°11' W 008°40'0 0.0
2015-May-27 11:22N 33°11' W 008°40'0 0.0
2015-May-26 17:31N 33°11' W 008°40'0 0.0
2015-May-26 15:28N 33°11' W 008°40'0 0.0
2015-May-26 14:31N 33°11' W 008°40'  
2015-May-23 17:34N 35°59' W 005°30'1110.7
2015-May-23 16:33N 36°07' W 005°21'0 0.2
2015-May-23 15:33N 36°07' W 005°22'0 0.0
2015-May-23 14:33N 36°07' W 005°22'0 0.0
2015-May-23 13:33N 36°07' W 005°22'0 0.0
2015-May-23 12:33N 36°07' W 005°21'0 0.2
2015-May-23 11:33N 36°07' W 005°22'0 0.1
2015-May-23 10:33N 36°07' W 005°21'0 0.1
2015-May-23 09:30N 36°07' W 005°21'0 0.0
2015-May-23 08:33N 36°07' W 005°21'0 0.0
2015-May-23 07:30N 36°07' W 005°21'0 0.0
2015-May-23 06:33N 36°07' W 005°21'1 1.2
2015-May-23 05:33N 36°06' W 005°22'4 4.3
2015-May-23 04:33N 36°05' W 005°16'11611.6
2015-May-22 18:33N 36°21' W 002°54'1312.6
2015-May-22 17:33N 36°23' W 002°39'1313.1
2015-May-22 16:33N 36°24' W 002°22'1313.1
2015-May-22 15:33N 36°26' W 002°06'1412.8
2015-May-22 14:30N 36°28' W 001°50'1212.5
2015-May-22 13:30N 36°30' W 001°34'3812.3
2015-May-22 10:22N 36°35' W 000°47'43212.0
2015-May-20 22:17N 37°37' E 008°09'811.0
2015-May-20 21:33N 37°38' E 008°19'10211.0
2015-May-20 12:17N 37°37' E 010°27'1011.6
2015-May-20 11:24N 37°34' E 010°40'1011.7
2015-May-20 10:30N 37°32' E 010°52'2412.0
2015-May-20 08:30N 37°23' E 011°21'1412.7
2015-May-20 07:22N 37°16' E 011°37'2512.6
2015-May-20 05:25N 37°05' E 012°04'1112.5
2015-May-20 04:33N 37°01' E 012°17'1212.4
2015-May-20 03:33N 36°57' E 012°31'1212.2
2015-May-20 02:33N 36°53' E 012°46'1212.3
2015-May-20 01:33N 36°49' E 013°00'1212.2
2015-May-20 00:34N 36°45' E 013°15'1212.2
2015-May-19 23:33N 36°42' E 013°29'1212.0
2015-May-19 22:33N 36°38' E 013°43'1211.7
2015-May-19 21:33N 36°34' E 013°57'1211.9
2015-May-19 20:33N 36°30' E 014°11'1212.1
2015-May-19 19:33N 36°26' E 014°25'1212.1
2015-May-19 18:33N 36°22' E 014°40'1211.7
2015-May-19 17:33N 36°18' E 014°53'1211.7
2015-May-19 16:33N 36°15' E 015°07'  

Dump ship's entire track history